DKA weather

Katsina Airport
Katsina, Katsina, Nigeria

Public forecast

Using degrees Celsius for public forecast. Weather courtesy of forecast.io.

METAR (pilot weather report)

Report is more than 2 hours old.

Closest report is Maradi Airport, 43.1 nm (79.8 km) NW. Retrieved 2019/02/16 18:00 UTC (5 hours ago):

DRRM 161800Z 10008KT 0400 DU NSC 25/M06 Q1015

TAF (pilot weather forecast)

Forecast is more than 12 hours old.

Closest forecast is Mallam Aminu International Airport, 76.7 nm (142.1 km) SE. Retrieved 2019/02/13 06:21 UTC (4 days ago):

TAF DNKN 130330Z 1306/1412 05010KT 2000 HZ NSC BECMG 1310/1312 5000